Time;durP1;ratioP1;P1;durP2;ratioP2;P2;SDS_P1;SDS_P2;PMS_P1;PMS_P2;Temp;Humidity;BMP_temperature;BMP_pressure;BME280_temperature;BME280_humidity;BME280_pressure;Samples;Min_cycle;Max_cycle;Signal;HPM_P1;HPM_P2
2023/03/06 00:01:55;;;;;;;4.23;1.90;;;1.80;99.90;;;;;;5076777;27;20568;-65
2023/03/06 00:04:22;;;;;;;2.70;2.00;;;1.80;99.90;;;;;;5052618;28;20208;-65
2023/03/06 00:06:49;;;;;;;2.57;1.50;;;1.80;99.90;;;;;;5067841;27;20227;-65
2023/03/06 00:09:16;;;;;;;3.27;2.00;;;1.70;99.90;;;;;;5076994;28;20227;-65
2023/03/06 00:11:43;;;;;;;2.30;2.10;;;1.70;99.90;;;;;;5053108;28;20235;-65
2023/03/06 00:14:10;;;;;;;2.67;1.80;;;1.80;99.90;;;;;;5065237;27;20195;-65
2023/03/06 00:16:38;;;;;;;3.50;1.87;;;1.80;99.90;;;;;;5077158;27;20207;-65
2023/03/06 00:19:05;;;;;;;2.10;1.70;;;1.80;99.90;;;;;;5077066;28;20207;-65
2023/03/06 00:21:32;;;;;;;3.20;2.13;;;1.70;99.90;;;;;;5055464;28;20558;-65
2023/03/06 00:23:58;;;;;;;2.40;1.77;;;1.80;99.90;;;;;;5078798;28;20399;-65
2023/03/06 00:26:25;;;;;;;2.00;1.53;;;1.90;99.90;;;;;;5054801;28;20207;-65
2023/03/06 00:28:52;;;;;;;2.80;1.80;;;1.80;99.90;;;;;;5069307;27;20419;-65
2023/03/06 00:31:19;;;;;;;2.30;1.60;;;1.80;99.90;;;;;;5078171;28;20199;-65
2023/03/06 00:33:48;;;;;;;2.73;1.80;;;1.80;99.90;;;;;;5072806;28;20199;-65
2023/03/06 00:36:15;;;;;;;1.93;1.57;;;1.80;99.90;;;;;;5058803;28;20759;-65
2023/03/06 00:38:42;;;;;;;2.00;1.57;;;1.90;99.90;;;;;;5063933;28;20242;-65
2023/03/06 00:41:10;;;;;;;2.50;1.47;;;1.80;99.90;;;;;;5049650;28;20791;-65
2023/03/06 00:43:37;;;;;;;1.80;1.30;;;1.90;99.90;;;;;;5067182;28;20210;-65
2023/03/06 00:46:04;;;;;;;1.37;1.27;;;1.90;99.90;;;;;;5081698;28;20230;-65
2023/03/06 00:48:32;;;;;;;1.37;1.20;;;1.90;99.90;;;;;;5076753;27;20694;-65
2023/03/06 00:51:00;;;;;;;3.30;1.40;;;1.90;99.90;;;;;;5082210;28;20202;-65
2023/03/06 00:53:27;;;;;;;2.17;1.40;;;1.90;99.90;;;;;;5051740;28;20365;-65
2023/03/06 00:55:54;;;;;;;1.27;1.07;;;1.90;99.90;;;;;;5076504;28;20395;-65
2023/03/06 00:58:20;;;;;;;1.83;1.43;;;1.90;99.90;;;;;;5050779;28;20207;-65
2023/03/06 01:00:47;;;;;;;1.60;1.10;;;1.90;99.90;;;;;;5043068;28;22637;-65
2023/03/06 01:03:14;;;;;;;2.63;1.03;;;1.90;99.90;;;;;;5079607;28;20203;-65
2023/03/06 01:05:41;;;;;;;1.20;1.10;;;1.90;99.90;;;;;;5074760;28;20195;-65
2023/03/06 01:08:09;;;;;;;1.87;1.37;;;1.90;99.90;;;;;;5067148;28;20199;-65
2023/03/06 01:10:39;;;;;;;3.13;1.30;;;1.90;99.90;;;;;;5069140;28;20232;-65
2023/03/06 01:13:06;;;;;;;2.23;1.20;;;1.90;99.90;;;;;;5056355;28;20214;-65
2023/03/06 01:15:33;;;;;;;1.43;1.20;;;1.90;99.90;;;;;;5072200;28;20203;-65
2023/03/06 01:18:00;;;;;;;2.47;1.20;;;1.80;99.90;;;;;;5089335;28;20195;-65
2023/03/06 01:20:27;;;;;;;1.17;1.00;;;1.80;99.90;;;;;;5084183;28;20229;-65
2023/03/06 01:22:55;;;;;;;1.67;1.20;;;1.80;99.90;;;;;;5065865;28;20299;-65
2023/03/06 01:25:24;;;;;;;1.80;1.30;;;1.80;99.90;;;;;;5071035;28;20892;-65
2023/03/06 01:27:51;;;;;;;4.13;1.40;;;1.90;99.90;;;;;;5084563;28;20624;-65
2023/03/06 01:30:19;;;;;;;1.70;1.10;;;1.80;99.90;;;;;;5056164;28;20227;-65
2023/03/06 01:32:46;;;;;;;1.40;1.00;;;1.80;99.90;;;;;;5068701;28;20318;-65
2023/03/06 01:35:13;;;;;;;1.13;0.90;;;1.90;99.90;;;;;;5069968;28;20318;-65
2023/03/06 01:37:40;;;;;;;0.97;0.80;;;1.90;99.90;;;;;;5077868;28;20389;-65
2023/03/06 01:40:12;;;;;;;0.70;0.70;;;1.80;99.90;;;;;;5052071;28;20208;-66
2023/03/06 01:42:40;;;;;;;0.63;0.63;;;1.80;99.90;;;;;;5082807;28;20195;-65
2023/03/06 01:45:29;;;;;;;0.80;0.80;;;1.80;99.90;;;;;;5055240;28;20223;-65
2023/03/06 01:47:56;;;;;;;1.30;0.93;;;1.80;99.90;;;;;;5065176;28;20206;-65
2023/03/06 01:50:22;;;;;;;1.00;0.80;;;1.80;99.90;;;;;;5077976;28;20227;-65
2023/03/06 01:52:52;;;;;;;1.00;0.67;;;1.90;99.90;;;;;;5076088;28;20198;-65
2023/03/06 01:55:25;;;;;;;0.60;0.60;;;1.80;99.90;;;;;;5057512;27;20703;-65
2023/03/06 01:57:56;;;;;;;0.50;0.50;;;1.80;99.90;;;;;;5079613;27;20193;-65
2023/03/06 02:00:25;;;;;;;1.87;0.87;;;1.80;99.90;;;;;;5054694;27;20231;-65
2023/03/06 02:02:55;;;;;;;0.90;0.60;;;1.80;99.90;;;;;;5070247;28;20199;-65
2023/03/06 02:05:22;;;;;;;0.83;0.70;;;1.80;99.90;;;;;;5086842;27;20288;-65
2023/03/06 02:07:51;;;;;;;1.30;0.57;;;1.80;99.90;;;;;;5072933;28;20196;-66
2023/03/06 02:10:19;;;;;;;1.60;0.50;;;1.80;99.90;;;;;;5066249;28;20711;-65
2023/03/06 02:12:48;;;;;;;5.10;0.87;;;1.80;99.90;;;;;;5068809;27;20675;-65
2023/03/06 02:15:23;;;;;;;2.13;0.90;;;1.80;99.90;;;;;;5089255;27;20205;-66
2023/03/06 02:17:51;;;;;;;0.47;0.47;;;1.70;99.90;;;;;;5042777;27;20208;-65
2023/03/06 02:20:24;;;;;;;0.97;0.60;;;1.70;99.90;;;;;;5083220;27;20214;-65
2023/03/06 02:23:01;;;;;;;0.67;0.60;;;1.70;99.90;;;;;;5067847;27;20463;-65
2023/03/06 02:25:37;;;;;;;0.50;0.50;;;1.70;99.90;;;;;;5081528;27;20661;-65
2023/03/06 02:28:05;;;;;;;0.60;0.60;;;1.80;99.90;;;;;;5061716;28;20418;-66
2023/03/06 02:30:32;;;;;;;0.60;0.50;;;1.80;99.90;;;;;;5081860;27;20233;-65
2023/03/06 02:32:59;;;;;;;1.40;0.80;;;1.50;99.90;;;;;;5035512;28;20454;-66
2023/03/06 02:35:29;;;;;;;0.70;0.70;;;1.80;99.90;;;;;;5085053;28;20200;-65
2023/03/06 02:37:57;;;;;;;0.90;0.70;;;1.80;99.90;;;;;;5069855;27;20246;-65
2023/03/06 02:40:24;;;;;;;0.50;0.50;;;1.80;99.90;;;;;;5084588;28;20506;-66
2023/03/06 02:42:55;;;;;;;2.33;0.90;;;1.80;99.90;;;;;;5057618;27;20210;-65
2023/03/06 02:45:30;;;;;;;1.27;0.63;;;1.80;99.90;;;;;;5081768;28;21033;-65
2023/03/06 02:47:56;;;;;;;1.60;0.90;;;1.80;99.90;;;;;;5047174;27;20418;-65
2023/03/06 02:50:23;;;;;;;3.23;0.70;;;1.90;99.90;;;;;;5079642;27;20226;-65
2023/03/06 02:52:50;;;;;;;0.50;0.50;;;1.90;99.90;;;;;;5082173;27;20200;-65
2023/03/06 02:55:17;;;;;;;1.00;0.83;;;1.90;99.90;;;;;;5083955;27;20203;-65
2023/03/06 02:57:44;;;;;;;2.63;0.83;;;1.80;99.90;;;;;;5041429;28;20769;-65
2023/03/06 03:00:13;;;;;;;1.60;0.87;;;1.90;99.90;;;;;;5081916;27;20215;-65
2023/03/06 03:02:40;;;;;;;2.03;1.10;;;1.90;99.90;;;;;;5058866;27;20202;-65
2023/03/06 03:05:08;;;;;;;1.10;1.00;;;1.80;99.90;;;;;;5067327;27;20553;-65
2023/03/06 03:07:35;;;;;;;0.80;0.77;;;1.80;99.90;;;;;;5085305;27;20192;-65
2023/03/06 03:10:02;;;;;;;1.50;1.00;;;1.80;99.90;;;;;;5083587;28;20724;-65
2023/03/06 03:12:28;;;;;;;2.50;1.13;;;1.80;99.90;;;;;;5086389;28;20271;-65
2023/03/06 03:14:55;;;;;;;1.30;1.20;;;1.80;99.90;;;;;;5053992;28;20791;-66
2023/03/06 03:17:24;;;;;;;1.77;1.50;;;1.80;99.90;;;;;;5086573;27;20207;-65
2023/03/06 03:19:51;;;;;;;2.77;1.30;;;1.80;99.90;;;;;;5043198;28;20693;-66
2023/03/06 03:22:18;;;;;;;1.17;1.07;;;1.80;99.90;;;;;;5089469;28;20202;-65
2023/03/06 03:24:45;;;;;;;1.40;1.23;;;1.70;99.90;;;;;;5082549;28;20197;-66
2023/03/06 03:27:13;;;;;;;1.83;1.50;;;1.70;99.90;;;;;;5079132;28;20199;-65
2023/03/06 03:29:40;;;;;;;1.50;1.37;;;1.70;99.90;;;;;;5062680;27;20217;-65
2023/03/06 03:32:07;;;;;;;1.50;1.30;;;1.70;99.90;;;;;;5071971;28;20234;-65
2023/03/06 03:34:35;;;;;;;2.13;1.30;;;1.70;99.90;;;;;;5059709;27;20203;-65
2023/03/06 03:37:02;;;;;;;3.90;1.37;;;1.70;99.90;;;;;;5070507;28;20196;-65
2023/03/06 03:39:29;;;;;;;2.17;1.30;;;1.80;99.90;;;;;;5087453;28;21015;-65
2023/03/06 03:41:56;;;;;;;1.13;1.03;;;1.80;99.90;;;;;;5085269;28;20622;-65
2023/03/06 03:44:22;;;;;;;5.43;1.27;;;1.80;99.90;;;;;;5081623;27;20210;-65
2023/03/06 03:46:49;;;;;;;1.60;1.20;;;1.80;99.90;;;;;;5062663;28;20647;-65
2023/03/06 03:49:16;;;;;;;2.40;0.93;;;1.70;99.90;;;;;;5066883;28;20205;-65
2023/03/06 03:51:44;;;;;;;2.67;1.30;;;1.70;99.90;;;;;;5045206;27;20206;-65
2023/03/06 03:54:11;;;;;;;2.03;0.80;;;1.70;99.90;;;;;;5087124;27;20198;-66
2023/03/06 03:56:39;;;;;;;1.53;1.10;;;1.70;99.90;;;;;;5076996;28;20687;-66
2023/03/06 03:59:06;;;;;;;3.03;1.10;;;1.70;99.90;;;;;;5076095;27;20196;-65
2023/03/06 04:01:33;;;;;;;1.47;1.30;;;1.70;99.90;;;;;;5058355;27;20705;-65
2023/03/06 04:04:00;;;;;;;1.30;1.00;;;1.80;99.90;;;;;;5069127;27;20395;-65
2023/03/06 04:06:27;;;;;;;2.03;1.40;;;1.70;99.90;;;;;;5056129;28;21001;-65
2023/03/06 04:08:55;;;;;;;1.57;1.30;;;1.70;99.90;;;;;;5068933;27;20205;-65
2023/03/06 04:11:22;;;;;;;1.67;1.37;;;1.70;99.90;;;;;;5085109;28;20601;-65
2023/03/06 04:13:48;;;;;;;1.97;1.60;;;1.80;99.90;;;;;;5077905;28;20779;-65
2023/03/06 04:16:15;;;;;;;1.73;1.30;;;1.70;99.90;;;;;;5065912;28;20207;-65
2023/03/06 04:18:42;;;;;;;2.50;1.87;;;1.70;99.90;;;;;;5081889;27;20585;-65
2023/03/06 04:21:09;;;;;;;2.37;1.97;;;1.70;99.90;;;;;;5057125;27;20729;-65
2023/03/06 04:23:36;;;;;;;2.40;1.70;;;1.70;99.90;;;;;;5068147;28;20711;-65
2023/03/06 04:26:04;;;;;;;2.40;1.70;;;1.70;99.90;;;;;;5073055;28;20761;-65
2023/03/06 04:28:31;;;;;;;1.60;1.30;;;1.70;99.90;;;;;;5077303;28;20195;-65
2023/03/06 04:30:58;;;;;;;1.90;1.50;;;1.70;99.90;;;;;;5059612;28;20505;-65
2023/03/06 04:33:24;;;;;;;5.30;1.70;;;1.70;99.90;;;;;;5075733;28;20222;-65
2023/03/06 04:35:51;;;;;;;1.63;1.43;;;1.70;99.90;;;;;;5049025;28;21361;-65
2023/03/06 04:38:18;;;;;;;4.70;1.43;;;1.70;99.90;;;;;;5055822;28;20208;-65
2023/03/06 04:40:48;;;;;;;3.03;1.57;;;1.70;99.90;;;;;;5070650;28;20200;-65
2023/03/06 04:43:16;;;;;;;3.57;1.23;;;1.70;99.90;;;;;;5057885;27;20315;-65
2023/03/06 04:45:43;;;;;;;1.97;1.40;;;1.60;99.90;;;;;;5060415;28;20712;-65
2023/03/06 04:48:12;;;;;;;3.53;1.30;;;1.60;99.90;;;;;;5076337;28;20601;-66
2023/03/06 04:50:39;;;;;;;2.00;1.57;;;1.70;99.90;;;;;;5067447;28;20224;-65
2023/03/06 04:53:07;;;;;;;4.80;1.53;;;1.70;99.90;;;;;;5043059;28;20519;-65
2023/03/06 04:55:34;;;;;;;5.43;2.00;;;1.70;99.90;;;;;;5075624;28;20603;-65
2023/03/06 04:58:01;;;;;;;3.97;1.90;;;1.60;99.90;;;;;;5067827;28;20206;-65
2023/03/06 05:00:30;;;;;;;4.10;1.87;;;1.60;99.90;;;;;;5080610;28;20200;-65
2023/03/06 05:02:58;;;;;;;4.50;2.70;;;1.60;99.90;;;;;;5058936;28;20236;-65
2023/03/06 05:05:26;;;;;;;5.27;2.90;;;1.60;99.90;;;;;;5078352;28;20231;-65
2023/03/06 05:07:53;;;;;;;5.97;2.47;;;1.50;99.90;;;;;;5043572;28;20701;-65
2023/03/06 05:10:20;;;;;;;3.33;2.53;;;1.50;99.90;;;;;;5064548;28;20242;-65
2023/03/06 05:12:47;;;;;;;4.03;2.87;;;1.50;99.90;;;;;;5080334;28;20207;-65
2023/03/06 05:15:16;;;;;;;3.47;2.37;;;1.50;99.90;;;;;;5063898;28;20209;-66
2023/03/06 05:17:45;;;;;;;3.83;2.30;;;1.50;99.90;;;;;;5061196;28;20226;-65
2023/03/06 05:20:13;;;;;;;2.50;1.80;;;1.50;99.90;;;;;;5080918;28;20337;-65
2023/03/06 05:22:41;;;;;;;2.73;1.70;;;1.40;99.90;;;;;;5056063;28;20207;-65
2023/03/06 05:25:09;;;;;;;2.60;1.90;;;1.40;99.90;;;;;;5061766;28;20271;-65
2023/03/06 05:27:36;;;;;;;3.40;1.97;;;1.40;99.90;;;;;;5078771;28;20218;-65
2023/03/06 05:30:04;;;;;;;1.97;1.50;;;1.50;99.90;;;;;;5073229;27;20227;-65
2023/03/06 05:32:31;;;;;;;2.40;2.00;;;1.40;99.90;;;;;;5066293;27;20288;-65
2023/03/06 05:34:59;;;;;;;2.87;2.17;;;1.50;99.90;;;;;;5075885;28;20226;-65
2023/03/06 05:37:26;;;;;;;3.10;2.00;;;1.50;99.90;;;;;;5061363;27;21738;-65
2023/03/06 05:39:53;;;;;;;3.40;1.80;;;1.50;99.90;;;;;;5058775;27;20222;-65
2023/03/06 05:42:20;;;;;;;2.53;1.93;;;1.50;99.90;;;;;;5071857;28;20785;-65
2023/03/06 05:44:46;;;;;;;1.67;1.50;;;1.50;99.90;;;;;;5055188;27;20238;-65
2023/03/06 05:47:13;;;;;;;1.60;1.20;;;1.50;99.90;;;;;;5062499;27;20222;-65
2023/03/06 05:49:40;;;;;;;1.77;1.23;;;1.40;99.90;;;;;;5052776;27;20799;-66
2023/03/06 05:52:13;;;;;;;1.30;1.20;;;1.40;99.90;;;;;;5075936;27;20445;-66
2023/03/06 05:54:40;;;;;;;2.97;1.40;;;1.40;99.90;;;;;;5043468;28;20225;-66
2023/03/06 05:57:07;;;;;;;1.90;1.23;;;1.40;99.90;;;;;;5075234;27;20486;-66
2023/03/06 05:59:34;;;;;;;1.87;1.40;;;1.40;99.90;;;;;;5061248;27;20861;-66
2023/03/06 06:02:02;;;;;;;2.60;1.83;;;1.40;99.90;;;;;;5076273;27;21015;-66
2023/03/06 06:04:29;;;;;;;1.80;1.47;;;1.40;99.90;;;;;;5062017;27;20218;-66
2023/03/06 06:06:57;;;;;;;4.20;1.70;;;1.40;99.90;;;;;;5075288;27;20227;-66
2023/03/06 06:09:27;;;;;;;2.97;1.93;;;1.30;99.90;;;;;;5050518;27;20231;-66
2023/03/06 06:11:55;;;;;;;4.63;2.23;;;1.30;99.90;;;;;;5057723;28;20238;-66
2023/03/06 06:14:22;;;;;;;2.67;1.70;;;1.30;99.90;;;;;;5080375;27;20226;-66
2023/03/06 06:16:49;;;;;;;2.70;1.97;;;1.30;99.90;;;;;;5052687;27;20228;-66
2023/03/06 06:19:19;;;;;;;2.57;1.93;;;1.30;99.90;;;;;;5084942;28;20222;-66
2023/03/06 06:21:46;;;;;;;4.83;2.00;;;1.30;99.90;;;;;;5068549;27;20720;-66
2023/03/06 06:24:14;;;;;;;2.37;1.90;;;1.30;99.90;;;;;;5061014;27;20216;-66
2023/03/06 06:26:42;;;;;;;2.87;1.93;;;1.30;99.90;;;;;;5072790;28;20609;-66
2023/03/06 06:29:10;;;;;;;2.33;1.83;;;1.30;99.90;;;;;;5087470;27;20205;-66
2023/03/06 06:31:37;;;;;;;4.17;2.30;;;1.30;99.90;;;;;;5069934;27;20806;-66
2023/03/06 06:34:05;;;;;;;3.00;2.23;;;1.30;99.90;;;;;;5087683;28;20308;-65
2023/03/06 06:36:32;;;;;;;3.10;2.17;;;1.30;99.90;;;;;;5067716;28;20218;-66
2023/03/06 06:38:59;;;;;;;5.50;2.10;;;1.30;99.90;;;;;;5088174;28;20202;-65
2023/03/06 06:41:27;;;;;;;4.37;3.00;;;1.30;99.90;;;;;;5054752;27;20214;-66
2023/03/06 06:43:55;;;;;;;3.33;2.23;;;1.30;99.90;;;;;;5081132;28;20338;-66
2023/03/06 06:46:22;;;;;;;3.23;2.10;;;1.30;99.90;;;;;;5084612;27;20262;-65
2023/03/06 06:48:49;;;;;;;5.43;2.30;;;1.30;99.90;;;;;;5075379;27;20539;-65
2023/03/06 06:51:16;;;;;;;3.23;2.00;;;1.40;99.90;;;;;;5080775;27;21582;-65
2023/03/06 06:53:44;;;;;;;3.53;2.23;;;1.40;99.90;;;;;;5063838;28;20502;-66
2023/03/06 06:56:10;;;;;;;2.60;1.97;;;1.40;99.90;;;;;;5058789;27;20259;-65
2023/03/06 06:58:37;;;;;;;4.33;2.30;;;1.40;99.90;;;;;;5072798;27;20205;-66
2023/03/06 07:01:11;;;;;;;4.33;2.87;;;1.40;99.90;;;;;;5085319;28;20202;-65
2023/03/06 07:03:38;;;;;;;3.97;2.50;;;1.40;99.90;;;;;;5064507;27;20215;-66
2023/03/06 07:06:06;;;;;;;5.50;2.20;;;1.40;99.90;;;;;;5090371;27;20586;-66
2023/03/06 07:08:34;;;;;;;4.53;2.73;;;1.40;99.90;;;;;;5024526;27;20202;-65
2023/03/06 07:11:05;;;;;;;3.10;2.20;;;1.40;99.90;;;;;;5075966;27;20732;-65
2023/03/06 07:13:32;;;;;;;3.53;2.60;;;1.40;99.90;;;;;;5042538;27;20214;-65
2023/03/06 07:15:59;;;;;;;6.67;2.70;;;1.40;99.90;;;;;;5075684;27;20223;-65
2023/03/06 07:18:27;;;;;;;3.70;2.30;;;1.40;99.90;;;;;;5075473;27;20218;-66
2023/03/06 07:20:54;;;;;;;3.20;2.33;;;1.50;99.90;;;;;;5079207;27;20213;-65
2023/03/06 07:23:21;;;;;;;4.10;2.90;;;1.50;99.90;;;;;;5064856;27;20687;-65
2023/03/06 07:25:48;;;;;;;5.60;3.13;;;1.50;99.90;;;;;;5064274;27;20501;-65
2023/03/06 07:28:15;;;;;;;6.23;3.37;;;1.50;99.90;;;;;;5055733;27;20214;-65
2023/03/06 07:30:42;;;;;;;6.13;3.83;;;1.50;99.90;;;;;;5082925;27;20309;-66
2023/03/06 07:33:09;;;;;;;5.47;3.73;;;1.50;99.90;;;;;;5087175;27;20192;-66
2023/03/06 07:35:37;;;;;;;5.80;4.13;;;1.50;99.90;;;;;;5067860;27;20620;-65
2023/03/06 07:38:04;;;;;;;5.50;3.77;;;1.60;99.90;;;;;;5081029;28;20198;-66
2023/03/06 07:40:31;;;;;;;14.23;4.87;;;1.80;99.90;;;;;;5059123;28;20703;-65
2023/03/06 07:42:58;;;;;;;8.77;5.17;;;1.70;99.90;;;;;;5051049;27;20751;-66
2023/03/06 07:45:25;;;;;;;10.63;5.53;;;1.60;99.90;;;;;;5080374;28;20230;-65
2023/03/06 07:47:52;;;;;;;10.03;4.87;;;1.70;99.90;;;;;;5069625;27;20198;-66
2023/03/06 07:50:20;;;;;;;8.57;5.10;;;1.70;99.90;;;;;;5062931;27;20911;-65
2023/03/06 07:52:49;;;;;;;7.33;4.63;;;1.70;99.90;;;;;;5083223;27;20424;-65
2023/03/06 07:55:16;;;;;;;8.43;4.83;;;1.60;99.90;;;;;;5062534;28;20198;-66
2023/03/06 07:57:42;;;;;;;8.93;5.00;;;1.60;99.90;;;;;;5050686;28;20441;-66
2023/03/06 08:00:12;;;;;;;7.40;4.83;;;1.60;99.90;;;;;;5077793;27;20200;-65
2023/03/06 08:02:39;;;;;;;7.17;4.37;;;1.60;99.90;;;;;;5083143;27;20431;-65
2023/03/06 08:05:08;;;;;;;10.03;5.10;;;1.50;99.90;;;;;;5076517;27;20195;-66
2023/03/06 08:07:34;;;;;;;13.47;4.27;;;1.50;99.90;;;;;;5072457;27;20213;-65
2023/03/06 08:10:03;;;;;;;6.17;4.10;;;1.60;99.90;;;;;;5081165;27;20203;-65
2023/03/06 08:12:30;;;;;;;6.10;4.30;;;1.60;99.90;;;;;;5044427;27;20266;-66
2023/03/06 08:14:56;;;;;;;8.43;5.50;;;1.50;99.90;;;;;;5075272;27;20209;-66
2023/03/06 08:17:23;;;;;;;7.47;4.87;;;1.60;99.90;;;;;;5079875;27;20197;-65
2023/03/06 08:19:50;;;;;;;5.83;4.17;;;1.50;99.90;;;;;;5081931;27;20604;-66
2023/03/06 08:22:17;;;;;;;7.47;3.73;;;1.50;99.90;;;;;;5075445;27;20213;-65
2023/03/06 08:24:43;;;;;;;8.73;4.40;;;1.50;99.90;;;;;;5077396;27;20196;-66
2023/03/06 08:27:11;;;;;;;7.30;4.60;;;1.50;99.90;;;;;;5071919;28;20198;-66
2023/03/06 08:29:38;;;;;;;9.90;4.60;;;1.50;99.90;;;;;;5051661;28;20400;-66
2023/03/06 08:32:06;;;;;;;6.67;4.07;;;1.50;99.90;;;;;;5082958;28;20226;-66
2023/03/06 08:34:32;;;;;;;7.47;3.40;;;1.60;99.90;;;;;;5079949;28;20203;-66
2023/03/06 08:36:59;;;;;;;6.37;4.17;;;1.60;99.90;;;;;;5067064;28;20206;-66
2023/03/06 08:39:26;;;;;;;8.73;3.87;;;1.60;99.90;;;;;;5079956;28;20195;-65
2023/03/06 08:41:53;;;;;;;6.20;4.00;;;1.60;99.90;;;;;;5068149;28;20779;-65
2023/03/06 08:44:21;;;;;;;4.93;3.50;;;1.70;99.90;;;;;;5069054;28;20205;-65
2023/03/06 08:46:48;;;;;;;6.27;4.10;;;1.70;99.90;;;;;;5068065;28;21424;-65
2023/03/06 08:49:14;;;;;;;6.17;3.70;;;1.70;99.90;;;;;;5074787;28;20239;-65
2023/03/06 08:51:41;;;;;;;6.63;3.67;;;1.80;99.90;;;;;;5063227;28;20229;-66
2023/03/06 08:54:10;;;;;;;7.47;3.70;;;1.80;99.90;;;;;;5083694;28;20285;-66
2023/03/06 08:56:37;;;;;;;5.80;3.97;;;1.90;99.90;;;;;;5077546;28;20212;-66
2023/03/06 08:59:05;;;;;;;7.73;4.27;;;2.00;99.90;;;;;;5069379;28;20218;-65
2023/03/06 09:01:36;;;;;;;15.93;3.87;;;1.90;99.90;;;;;;5053039;28;20207;-66
2023/03/06 09:04:04;;;;;;;7.20;3.93;;;2.00;99.90;;;;;;5082792;27;20210;-66
2023/03/06 09:06:33;;;;;;;5.60;3.40;;;1.90;99.90;;;;;;5081228;28;20195;-65
2023/03/06 09:09:00;;;;;;;4.33;3.00;;;1.80;99.90;;;;;;5073438;28;20770;-66
2023/03/06 09:11:28;;;;;;;6.37;3.47;;;1.90;99.90;;;;;;5079989;28;20225;-65
2023/03/06 09:13:55;;;;;;;5.13;3.30;;;2.00;99.90;;;;;;5066184;27;20212;-66
2023/03/06 09:16:22;;;;;;;7.23;3.30;;;2.10;99.90;;;;;;5056900;28;20237;-66
2023/03/06 09:18:51;;;;;;;5.00;2.70;;;2.10;99.90;;;;;;5082451;28;20508;-66
2023/03/06 09:21:18;;;;;;;5.80;3.03;;;2.30;99.90;;;;;;5081417;28;20655;-66
2023/03/06 09:23:45;;;;;;;3.97;2.67;;;2.30;99.90;;;;;;5069968;28;20425;-66
2023/03/06 09:26:13;;;;;;;4.03;2.97;;;2.40;99.90;;;;;;5087828;27;20206;-66
2023/03/06 09:28:40;;;;;;;7.70;3.03;;;2.30;99.90;;;;;;5064622;28;20211;-66
2023/03/06 09:31:11;;;;;;;3.57;2.60;;;2.40;99.90;;;;;;5084779;27;20210;-66
2023/03/06 09:33:38;;;;;;;5.13;3.43;;;2.40;99.90;;;;;;5059264;28;20338;-66
2023/03/06 09:36:08;;;;;;;4.53;3.20;;;2.20;99.90;;;;;;5087416;28;20204;-66
2023/03/06 09:38:35;;;;;;;4.60;2.80;;;2.30;99.90;;;;;;5074031;27;20199;-66
2023/03/06 09:41:08;;;;;;;7.90;3.73;;;2.50;99.90;;;;;;5080807;28;20199;-66
2023/03/06 09:43:38;;;;;;;6.47;3.13;;;2.60;99.90;;;;;;5088892;27;20831;-66
2023/03/06 09:46:19;;;;;;;4.90;3.30;;;2.60;99.90;;;;;;5066181;28;20785;-66
2023/03/06 09:49:09;;;;;;;3.70;2.87;;;2.60;99.90;;;;;;5058386;28;20692;-66
2023/03/06 09:51:47;;;;;;;8.27;3.43;;;2.60;99.90;;;;;;5085467;27;20233;-66
2023/03/06 09:54:16;;;;;;;6.63;3.30;;;2.80;99.90;;;;;;5076220;28;20245;-66
2023/03/06 09:56:48;;;;;;;5.90;3.57;;;2.90;99.90;;;;;;5077815;27;20215;-66
2023/03/06 09:59:19;;;;;;;5.03;3.30;;;2.90;99.90;;;;;;5081882;28;20199;-66
2023/03/06 10:01:56;;;;;;;6.70;3.60;;;3.00;99.90;;;;;;5050679;27;20668;-66
2023/03/06 10:04:34;;;;;;;4.13;2.80;;;3.10;99.90;;;;;;5080899;28;20199;-65
2023/03/06 10:07:10;;;;;;;4.93;2.93;;;3.20;99.90;;;;;;5080101;27;20815;-66
2023/03/06 10:09:42;;;;;;;4.83;2.87;;;3.30;99.90;;;;;;5078502;27;20202;-66
2023/03/06 10:12:20;;;;;;;3.97;3.00;;;3.50;99.90;;;;;;5082603;27;20509;-66
2023/03/06 10:14:57;;;;;;;4.87;3.13;;;3.60;99.90;;;;;;5070961;28;20252;-66
2023/03/06 10:17:26;;;;;;;5.13;2.83;;;3.70;99.90;;;;;;5083217;27;20222;-67
2023/03/06 10:19:52;;;;;;;3.90;2.80;;;3.70;99.90;;;;;;5055339;27;20894;-66
2023/03/06 10:22:28;;;;;;;3.07;2.30;;;3.60;99.90;;;;;;5088031;27;20672;-66
2023/03/06 10:25:02;;;;;;;6.03;2.93;;;3.60;99.90;;;;;;5065443;28;20332;-66
2023/03/06 10:27:38;;;;;;;4.20;2.50;;;3.50;99.90;;;;;;5078448;27;20191;-67
2023/03/06 10:30:21;;;;;;;11.20;2.33;;;3.60;99.90;;;;;;5075422;28;20961;-65
2023/03/06 10:32:54;;;;;;;4.70;1.90;;;3.50;99.90;;;;;;5082044;28;20647;-66
2023/03/06 10:35:24;;;;;;;2.47;1.57;;;3.50;99.90;;;;;;5060166;27;20933;-66
2023/03/06 10:38:00;;;;;;;6.47;2.40;;;3.50;99.90;;;;;;5081748;28;20208;-66
2023/03/06 10:40:35;;;;;;;5.53;2.50;;;3.50;99.90;;;;;;5075580;27;20487;-66
2023/03/06 10:43:02;;;;;;;3.60;2.40;;;3.60;99.90;;;;;;5080273;27;20833;-66
2023/03/06 10:45:29;;;;;;;6.00;2.00;;;3.60;99.90;;;;;;5082823;27;20270;-66
2023/03/06 10:48:10;;;;;;;4.80;2.20;;;3.70;99.90;;;;;;5069549;27;20438;-66
2023/03/06 10:50:37;;;;;;;4.10;1.93;;;3.70;99.90;;;;;;5060755;27;20249;-66
2023/03/06 10:53:07;;;;;;;2.93;2.20;;;3.80;99.90;;;;;;5080229;27;20257;-66
2023/03/06 10:55:36;;;;;;;2.23;1.57;;;3.80;99.90;;;;;;5070811;27;20207;-66
2023/03/06 10:58:25;;;;;;;2.70;2.00;;;3.90;99.90;;;;;;5082204;27;20393;-66
2023/03/06 11:01:05;;;;;;;2.63;1.90;;;4.00;99.90;;;;;;5064319;27;20206;-66
2023/03/06 11:03:33;;;;;;;4.03;1.90;;;4.10;99.90;;;;;;5082132;27;20199;-66
2023/03/06 11:06:31;;;;;;;3.87;2.10;;;4.10;99.90;;;;;;5052313;27;21721;-66
2023/03/06 11:09:15;;;;;;;3.90;1.90;;;4.30;99.90;;;;;;5084840;27;20457;-66
2023/03/06 11:11:42;;;;;;;4.00;1.90;;;4.30;99.90;;;;;;5074590;28;20199;-66
2023/03/06 11:14:15;;;;;;;5.47;2.30;;;4.30;99.90;;;;;;5084839;28;20192;-66
2023/03/06 11:16:51;;;;;;;2.60;2.03;;;4.30;99.90;;;;;;5075379;28;20210;-66
2023/03/06 11:19:21;;;;;;;3.23;2.00;;;4.20;99.90;;;;;;5080374;28;20214;-66
2023/03/06 11:22:00;;;;;;;5.20;2.30;;;4.20;99.90;;;;;;5054813;28;20721;-66
2023/03/06 11:24:37;;;;;;;3.67;2.03;;;4.20;99.90;;;;;;5076146;27;20222;-66
2023/03/06 11:27:18;;;;;;;5.63;1.70;;;4.20;99.90;;;;;;5070069;28;20199;-66
2023/03/06 11:29:48;;;;;;;4.27;1.90;;;4.20;99.90;;;;;;5072844;28;20211;-66
2023/03/06 11:32:20;;;;;;;5.60;2.00;;;4.20;99.90;;;;;;5050802;27;20945;-66
2023/03/06 11:34:51;;;;;;;2.80;1.87;;;4.30;99.90;;;;;;5077830;28;20195;-66
2023/03/06 11:37:25;;;;;;;6.70;2.43;;;4.40;99.90;;;;;;5047160;28;20951;-66
2023/03/06 11:40:03;;;;;;;6.17;2.10;;;4.40;99.90;;;;;;5082862;28;20222;-66
2023/03/06 11:42:37;;;;;;;5.87;2.70;;;4.40;99.90;;;;;;5075529;28;20360;-66
2023/03/06 11:45:19;;;;;;;2.33;1.83;;;4.40;99.90;;;;;;5075273;28;20356;-66
2023/03/06 11:47:52;;;;;;;6.27;2.20;;;4.40;99.90;;;;;;5069981;27;20228;-66
2023/03/06 11:50:25;;;;;;;3.03;1.80;;;4.50;99.90;;;;;;5080605;28;20212;-66
2023/03/06 11:52:56;;;;;;;4.73;1.77;;;4.60;99.90;;;;;;5050330;28;20262;-66
2023/03/06 11:55:39;;;;;;;4.77;2.23;;;4.60;99.90;;;;;;5056220;28;20772;-66
2023/03/06 11:58:34;;;;;;;3.47;2.13;;;4.60;99.90;;;;;;5037682;28;20195;-66
2023/03/06 12:01:06;;;;;;;3.80;2.00;;;4.80;99.90;;;;;;5051119;27;20511;-66
2023/03/06 12:04:02;;;;;;;3.50;1.90;;;4.80;99.90;;;;;;5043777;28;20215;-66
2023/03/06 12:06:40;;;;;;;3.17;2.03;;;4.90;99.90;;;;;;5036952;27;20260;-66
2023/03/06 12:09:22;;;;;;;2.23;1.80;;;4.90;99.90;;;;;;5075206;27;20215;-66
2023/03/06 12:12:15;;;;;;;6.30;2.27;;;5.00;99.90;;;;;;5061744;27;20243;-67
2023/03/06 12:14:59;;;;;;;1.90;1.50;;;5.00;99.90;;;;;;5067228;27;20206;-66
2023/03/06 12:17:42;;;;;;;2.77;1.90;;;5.00;99.90;;;;;;5036221;27;20383;-66
2023/03/06 12:20:26;;;;;;;2.33;1.63;;;5.00;99.90;;;;;;5043761;28;20203;-66
2023/03/06 12:22:56;;;;;;;1.93;1.60;;;4.90;99.90;;;;;;5045777;28;20219;-66
2023/03/06 12:25:35;;;;;;;2.80;1.60;;;5.00;99.90;;;;;;5049719;28;20432;-66
2023/03/06 12:28:27;;;;;;;5.63;3.00;;;5.00;99.90;;;;;;5043793;28;20200;-66
2023/03/06 12:31:16;;;;;;;4.80;2.57;;;5.00;99.90;;;;;;5039086;22;20703;-66
2023/03/06 12:33:57;;;;;;;2.50;1.87;;;5.00;99.90;;;;;;5040488;28;20741;-65
2023/03/06 12:36:47;;;;;;;2.37;1.90;;;5.00;99.90;;;;;;5015290;28;21068;-66
2023/03/06 12:39:22;;;;;;;5.30;2.07;;;5.00;99.90;;;;;;5034336;28;20192;-66
2023/03/06 12:42:02;;;;;;;2.60;1.80;;;5.10;99.90;;;;;;5050764;28;20199;-66
2023/03/06 12:44:48;;;;;;;3.33;1.80;;;5.00;99.90;;;;;;5032657;28;20238;-66
2023/03/06 12:47:20;;;;;;;6.77;2.10;;;4.80;99.90;;;;;;5030497;28;20638;-65
2023/03/06 12:49:54;;;;;;;6.30;1.93;;;4.80;99.90;;;;;;5043270;28;20204;-65
2023/03/06 12:52:25;;;;;;;3.90;2.10;;;4.80;99.90;;;;;;5036924;28;20348;-65
2023/03/06 12:54:54;;;;;;;6.33;2.17;;;4.80;99.90;;;;;;5047603;28;20196;-66
2023/03/06 12:57:24;;;;;;;3.40;1.83;;;4.80;99.90;;;;;;5057768;28;20285;-65
2023/03/06 12:59:53;;;;;;;3.87;2.20;;;4.80;99.90;;;;;;5027854;28;20688;-66
2023/03/06 13:02:45;;;;;;;4.73;2.03;;;4.70;99.90;;;;;;5039762;28;20409;-65
2023/03/06 13:05:31;;;;;;;2.83;1.97;;;4.70;99.90;;;;;;5022524;28;20227;-65
2023/03/06 13:08:13;;;;;;;4.27;2.00;;;4.70;99.90;;;;;;5046085;28;20669;-65
2023/03/06 13:10:42;;;;;;;3.37;1.80;;;4.70;99.90;;;;;;5035197;28;20744;-65
2023/03/06 13:13:29;;;;;;;4.80;1.60;;;4.70;99.90;;;;;;5037866;28;20220;-66